Time;durP1;ratioP1;P1;durP2;ratioP2;P2;SDS_P1;SDS_P2;PMS_P1;PMS_P2;Temp;Humidity;BMP_temperature;BMP_pressure;BME280_temperature;BME280_humidity;BME280_pressure;Samples;Min_cycle;Max_cycle;Signal;HPM_P1;HPM_P2
2021/07/23 00:00:46;;;;;;;7.72;5.35;;;;;;;;;;5029035;28;20147;-64
2021/07/23 00:03:12;;;;;;;6.20;4.85;;;;;;;;;;5029770;28;20502;-64
2021/07/23 00:05:38;;;;;;;5.72;4.38;;;;;;;;;;5027443;28;20100;-64
2021/07/23 00:08:04;;;;;;;5.75;4.72;;;;;;;;;;5028864;28;20080;-65
2021/07/23 00:10:30;;;;;;;4.93;4.18;;;;;;;;;;5028018;28;20021;-65
2021/07/23 00:12:56;;;;;;;5.03;4.20;;;;;;;;;;5028585;28;20444;-65
2021/07/23 00:15:22;;;;;;;5.10;3.97;;;;;;;;;;5030838;28;20013;-64
2021/07/23 00:17:48;;;;;;;4.82;3.92;;;;;;;;;;5048864;28;20057;-65
2021/07/23 00:20:15;;;;;;;4.47;3.72;;;;;;;;;;5048190;28;20495;-64
2021/07/23 00:22:41;;;;;;;4.97;3.83;;;;;;;;;;5048304;28;20039;-64
2021/07/23 00:25:07;;;;;;;4.07;3.55;;;;;;;;;;5048349;28;20018;-64
2021/07/23 00:27:33;;;;;;;4.55;3.33;;;;;;;;;;5047909;28;20427;-64
2021/07/23 00:29:59;;;;;;;6.07;3.95;;;;;;;;;;5048276;28;20025;-63
2021/07/23 00:32:25;;;;;;;3.72;3.30;;;;;;;;;;5040232;28;20488;-64
2021/07/23 00:34:51;;;;;;;5.03;3.97;;;;;;;;;;5028630;28;20052;-64
2021/07/23 00:37:17;;;;;;;4.43;3.60;;;;;;;;;;5028063;28;20076;-64
2021/07/23 00:39:44;;;;;;;4.85;4.10;;;;;;;;;;5028074;28;20028;-64
2021/07/23 00:42:10;;;;;;;5.47;4.18;;;;;;;;;;5027700;28;20549;-64
2021/07/23 00:44:36;;;;;;;7.00;4.72;;;;;;;;;;5027277;28;20060;-65
2021/07/23 00:47:02;;;;;;;5.70;4.45;;;;;;;;;;5027940;28;20058;-65
2021/07/23 00:49:28;;;;;;;4.20;3.60;;;;;;;;;;5027562;28;20721;-64
2021/07/23 00:51:55;;;;;;;6.60;4.82;;;;;;;;;;5028646;28;20049;-65
2021/07/23 00:54:21;;;;;;;6.22;4.60;;;;;;;;;;5027948;28;20022;-64
2021/07/23 00:56:47;;;;;;;4.50;3.88;;;;;;;;;;5027485;28;20911;-64
2021/07/23 00:59:14;;;;;;;7.32;4.70;;;;;;;;;;5046906;28;20060;-64
2021/07/23 01:01:42;;;;;;;5.60;4.55;;;;;;;;;;5047436;28;20032;-64
2021/07/23 01:04:08;;;;;;;6.05;4.65;;;;;;;;;;5047600;28;20554;-64
2021/07/23 01:06:35;;;;;;;5.63;4.72;;;;;;;;;;5047494;28;20566;-64
2021/07/23 01:09:01;;;;;;;5.53;4.40;;;;;;;;;;5047495;28;20047;-64
2021/07/23 01:11:27;;;;;;;6.45;4.50;;;;;;;;;;5042066;28;20088;-64
2021/07/23 01:13:54;;;;;;;7.88;5.57;;;;;;;;;;5028112;28;20603;-64
2021/07/23 01:16:20;;;;;;;6.38;5.22;;;;;;;;;;5031237;28;20694;-65
2021/07/23 01:18:47;;;;;;;7.50;4.95;;;;;;;;;;5047218;28;20040;-65
2021/07/23 01:21:13;;;;;;;7.65;4.82;;;;;;;;;;5046389;28;20037;-65
2021/07/23 01:23:40;;;;;;;5.60;4.68;;;;;;;;;;5047254;28;20029;-64
2021/07/23 01:26:07;;;;;;;7.28;4.85;;;;;;;;;;5036034;28;20423;-64
2021/07/23 01:28:35;;;;;;;6.97;4.80;;;;;;;;;;5026904;28;20028;-64
2021/07/23 01:31:01;;;;;;;5.72;4.57;;;;;;;;;;5027140;28;20026;-64
2021/07/23 01:33:28;;;;;;;6.30;4.82;;;;;;;;;;5026988;28;20120;-64
2021/07/23 01:35:54;;;;;;;5.85;4.70;;;;;;;;;;5027704;28;20030;-64
2021/07/23 01:38:21;;;;;;;6.45;4.68;;;;;;;;;;5026970;28;20025;-64
2021/07/23 01:40:47;;;;;;;5.82;4.63;;;;;;;;;;5027227;28;20025;-64
2021/07/23 01:43:16;;;;;;;5.93;4.65;;;;;;;;;;5029795;28;20029;-64
2021/07/23 01:45:43;;;;;;;5.65;4.35;;;;;;;;;;5027103;28;20485;-64
2021/07/23 01:48:09;;;;;;;6.38;4.57;;;;;;;;;;5025385;28;20033;-65
2021/07/23 01:50:35;;;;;;;4.97;4.40;;;;;;;;;;5026707;28;20488;-64
2021/07/23 01:53:01;;;;;;;6.05;4.78;;;;;;;;;;5027009;28;20025;-64
2021/07/23 01:55:27;;;;;;;6.45;4.82;;;;;;;;;;5026655;28;20040;-64
2021/07/23 01:57:53;;;;;;;5.28;4.30;;;;;;;;;;5027439;28;20404;-64
2021/07/23 02:00:19;;;;;;;6.82;5.07;;;;;;;;;;5027689;28;20068;-64
2021/07/23 02:02:46;;;;;;;6.05;4.55;;;;;;;;;;5038829;28;20029;-64
2021/07/23 02:05:12;;;;;;;6.72;5.13;;;;;;;;;;5026141;28;20707;-64
2021/07/23 02:07:38;;;;;;;6.97;4.35;;;;;;;;;;5026823;28;20034;-64
2021/07/23 02:10:07;;;;;;;4.80;4.30;;;;;;;;;;5026515;28;20388;-64
2021/07/23 02:12:34;;;;;;;6.03;4.20;;;;;;;;;;5041837;28;20036;-64
2021/07/23 02:15:00;;;;;;;5.55;4.68;;;;;;;;;;5045713;28;20100;-64
2021/07/23 02:17:26;;;;;;;7.07;4.28;;;;;;;;;;5046785;28;20025;-64
2021/07/23 02:19:52;;;;;;;6.65;4.38;;;;;;;;;;5047009;28;20032;-64
2021/07/23 02:22:18;;;;;;;6.43;4.10;;;;;;;;;;5046145;28;20033;-64
2021/07/23 02:24:44;;;;;;;5.35;4.10;;;;;;;;;;5046363;28;20565;-64
2021/07/23 02:27:13;;;;;;;6.00;4.28;;;;;;;;;;5044269;28;20787;-64
2021/07/23 02:29:39;;;;;;;7.25;4.38;;;;;;;;;;5046116;28;20075;-64
2021/07/23 02:32:06;;;;;;;6.00;4.47;;;;;;;;;;5046290;28;20559;-64
2021/07/23 02:34:32;;;;;;;4.20;3.78;;;;;;;;;;5041164;28;20033;-64
2021/07/23 02:36:58;;;;;;;5.10;4.10;;;;;;;;;;5030410;28;20022;-64
2021/07/23 02:39:25;;;;;;;7.13;5.15;;;;;;;;;;5029865;28;20615;-64
2021/07/23 02:41:52;;;;;;;5.97;4.40;;;;;;;;;;5038884;28;20029;-64
2021/07/23 02:44:18;;;;;;;6.00;4.68;;;;;;;;;;5049913;28;20391;-64
2021/07/23 02:46:44;;;;;;;6.60;4.90;;;;;;;;;;5049680;28;20491;-64
2021/07/23 02:49:10;;;;;;;4.88;4.07;;;;;;;;;;5050186;28;20033;-65
2021/07/23 02:51:36;;;;;;;5.28;4.35;;;;;;;;;;5050123;28;20142;-64
2021/07/23 02:54:03;;;;;;;6.40;4.30;;;;;;;;;;5050333;28;20074;-64
2021/07/23 02:56:29;;;;;;;5.35;4.32;;;;;;;;;;5049670;28;20033;-65
2021/07/23 02:58:55;;;;;;;4.95;3.72;;;;;;;;;;5050207;28;20418;-64
2021/07/23 03:01:21;;;;;;;4.60;3.70;;;;;;;;;;5048918;28;20077;-64
2021/07/23 03:03:47;;;;;;;4.97;4.00;;;;;;;;;;5049781;28;20133;-64
2021/07/23 03:06:13;;;;;;;5.55;3.72;;;;;;;;;;5050039;28;20162;-64
2021/07/23 03:08:39;;;;;;;4.13;3.55;;;;;;;;;;5050160;28;20061;-63
2021/07/23 03:11:05;;;;;;;5.32;4.30;;;;;;;;;;5042539;28;20167;-63
2021/07/23 03:13:32;;;;;;;5.13;4.10;;;;;;;;;;5029570;28;20483;-63
2021/07/23 03:15:58;;;;;;;5.47;4.38;;;;;;;;;;5029623;28;20029;-64
2021/07/23 03:18:24;;;;;;;5.85;4.20;;;;;;;;;;5027741;28;20029;-64
2021/07/23 03:20:50;;;;;;;5.95;4.38;;;;;;;;;;5029496;28;20041;-64
2021/07/23 03:23:16;;;;;;;5.28;4.45;;;;;;;;;;5029261;28;20052;-63
2021/07/23 03:25:42;;;;;;;8.27;5.00;;;;;;;;;;5029756;28;20022;-63
2021/07/23 03:28:08;;;;;;;5.65;4.30;;;;;;;;;;5028631;28;20492;-64
2021/07/23 03:30:34;;;;;;;7.93;5.18;;;;;;;;;;5029249;28;20731;-63
2021/07/23 03:33:01;;;;;;;5.75;4.30;;;;;;;;;;5029146;28;20025;-63
2021/07/23 03:35:30;;;;;;;6.80;4.30;;;;;;;;;;5029403;28;20034;-63
2021/07/23 03:37:56;;;;;;;5.78;4.55;;;;;;;;;;5028597;28;20052;-63
2021/07/23 03:40:22;;;;;;;5.55;4.53;;;;;;;;;;5028848;28;20033;-63
2021/07/23 03:42:48;;;;;;;5.93;4.68;;;;;;;;;;5029395;28;20080;-63
2021/07/23 03:45:14;;;;;;;5.95;4.30;;;;;;;;;;5043334;28;20040;-63
2021/07/23 03:47:41;;;;;;;6.20;4.85;;;;;;;;;;5048259;28;20021;-63
2021/07/23 03:50:07;;;;;;;5.35;4.32;;;;;;;;;;5048807;28;20033;-64
2021/07/23 03:52:33;;;;;;;6.28;4.65;;;;;;;;;;5030743;28;20041;-64
2021/07/23 03:54:59;;;;;;;5.97;4.43;;;;;;;;;;5028819;28;20037;-64
2021/07/23 03:57:25;;;;;;;5.60;4.60;;;;;;;;;;5028877;28;20030;-64
2021/07/23 03:59:51;;;;;;;5.30;4.18;;;;;;;;;;5028851;28;20029;-64
2021/07/23 04:02:18;;;;;;;5.38;4.32;;;;;;;;;;5027554;28;20033;-64
2021/07/23 04:04:44;;;;;;;5.82;4.05;;;;;;;;;;5029152;28;20411;-64
2021/07/23 04:07:10;;;;;;;5.82;4.65;;;;;;;;;;5028468;28;20040;-64
2021/07/23 04:09:36;;;;;;;6.55;4.95;;;;;;;;;;5028522;28;20361;-63
2021/07/23 04:12:03;;;;;;;5.68;4.68;;;;;;;;;;5028330;28;20059;-63
2021/07/23 04:14:30;;;;;;;5.40;4.20;;;;;;;;;;5028483;28;20030;-63
2021/07/23 04:16:56;;;;;;;5.50;4.45;;;;;;;;;;5039183;28;20028;-63
2021/07/23 04:19:22;;;;;;;5.72;4.13;;;;;;;;;;5047848;28;20556;-63
2021/07/23 04:21:48;;;;;;;5.28;3.90;;;;;;;;;;5039453;28;20049;-63
2021/07/23 04:24:14;;;;;;;4.93;4.00;;;;;;;;;;5028187;28;20082;-63
2021/07/23 04:26:40;;;;;;;5.53;4.47;;;;;;;;;;5028889;28;20446;-63
2021/07/23 04:29:06;;;;;;;6.70;4.47;;;;;;;;;;5028502;28;20123;-64
2021/07/23 04:31:32;;;;;;;5.90;4.75;;;;;;;;;;5026464;28;20434;-64
2021/07/23 04:33:59;;;;;;;5.88;4.03;;;;;;;;;;5048964;28;20113;-64
2021/07/23 04:36:25;;;;;;;6.40;4.70;;;;;;;;;;5032525;28;20044;-64
2021/07/23 04:38:51;;;;;;;6.63;4.82;;;;;;;;;;5052364;28;20021;-65
2021/07/23 04:41:17;;;;;;;5.80;4.38;;;;;;;;;;5048261;28;20037;-65
2021/07/23 04:43:43;;;;;;;5.65;4.47;;;;;;;;;;5044838;28;20483;-65
2021/07/23 04:46:09;;;;;;;5.95;4.65;;;;;;;;;;5029604;28;20036;-65
2021/07/23 04:48:36;;;;;;;6.65;4.18;;;;;;;;;;5035785;28;20028;-64
2021/07/23 04:51:03;;;;;;;7.18;4.68;;;;;;;;;;5047002;28;20021;-64
2021/07/23 04:53:29;;;;;;;6.22;4.65;;;;;;;;;;5029070;28;20131;-64
2021/07/23 04:55:58;;;;;;;5.55;4.30;;;;;;;;;;5045398;28;20036;-64
2021/07/23 04:58:24;;;;;;;4.88;3.92;;;;;;;;;;5045589;28;20394;-65
2021/07/23 05:00:53;;;;;;;5.40;4.30;;;;;;;;;;5044144;28;20360;-64
2021/07/23 05:03:19;;;;;;;6.65;4.50;;;;;;;;;;5028630;28;20026;-65
2021/07/23 05:05:46;;;;;;;5.05;4.10;;;;;;;;;;5039871;28;20037;-65
2021/07/23 05:08:12;;;;;;;4.75;3.75;;;;;;;;;;5039689;28;20037;-64
2021/07/23 05:10:40;;;;;;;5.68;4.55;;;;;;;;;;5030596;28;20040;-65
2021/07/23 05:13:07;;;;;;;6.30;4.53;;;;;;;;;;5035386;28;20071;-64
2021/07/23 05:15:33;;;;;;;5.50;4.30;;;;;;;;;;5048771;28;20024;-64
2021/07/23 05:17:59;;;;;;;5.88;4.55;;;;;;;;;;5048829;28;20025;-63
2021/07/23 05:20:25;;;;;;;5.07;4.10;;;;;;;;;;5048858;28;20547;-65
2021/07/23 05:22:52;;;;;;;5.60;4.07;;;;;;;;;;5047550;28;20120;-64
2021/07/23 05:25:18;;;;;;;5.47;4.00;;;;;;;;;;5048839;28;20134;-64
2021/07/23 05:27:45;;;;;;;6.60;4.80;;;;;;;;;;5048620;28;20051;-65
2021/07/23 05:30:11;;;;;;;6.65;4.25;;;;;;;;;;5044123;28;20048;-65
2021/07/23 05:32:37;;;;;;;5.68;4.43;;;;;;;;;;5045049;28;20094;-64
2021/07/23 05:35:04;;;;;;;5.25;4.15;;;;;;;;;;5041986;28;20027;-65
2021/07/23 05:37:33;;;;;;;5.10;4.10;;;;;;;;;;5034980;28;20029;-66
2021/07/23 05:39:59;;;;;;;5.63;4.60;;;;;;;;;;5034307;28;20101;-63
2021/07/23 05:42:25;;;;;;;5.85;4.28;;;;;;;;;;5029021;28;20132;-66
2021/07/23 05:44:51;;;;;;;5.65;4.10;;;;;;;;;;5031265;28;20029;-65
2021/07/23 05:47:18;;;;;;;5.40;4.30;;;;;;;;;;5030552;28;20043;-65
2021/07/23 05:49:44;;;;;;;6.47;4.13;;;;;;;;;;5046913;28;20027;-65
2021/07/23 05:52:10;;;;;;;5.45;4.35;;;;;;;;;;5033118;28;20036;-65
2021/07/23 05:54:36;;;;;;;5.13;4.28;;;;;;;;;;5044733;28;20167;-65
2021/07/23 05:57:03;;;;;;;5.38;3.92;;;;;;;;;;5035578;28;20602;-65
2021/07/23 05:59:30;;;;;;;5.18;4.25;;;;;;;;;;5033703;28;20403;-65
2021/07/23 06:01:56;;;;;;;5.97;4.20;;;;;;;;;;5037887;28;20041;-65
2021/07/23 06:04:22;;;;;;;5.15;4.00;;;;;;;;;;5033890;28;20523;-65
2021/07/23 06:06:48;;;;;;;5.38;4.10;;;;;;;;;;5034341;28;20033;-65
2021/07/23 06:09:16;;;;;;;6.68;4.40;;;;;;;;;;5027413;28;20377;-65
2021/07/23 06:11:43;;;;;;;6.28;4.50;;;;;;;;;;5044683;28;20275;-66
2021/07/23 06:14:09;;;;;;;5.45;4.30;;;;;;;;;;5035390;28;20024;-66
2021/07/23 06:16:35;;;;;;;4.40;3.67;;;;;;;;;;5041861;28;20145;-66
2021/07/23 06:19:02;;;;;;;4.93;3.70;;;;;;;;;;5036765;28;20185;-65
2021/07/23 06:21:28;;;;;;;5.15;4.10;;;;;;;;;;5035244;28;20053;-65
2021/07/23 06:23:55;;;;;;;5.30;3.85;;;;;;;;;;5039423;28;20028;-65
2021/07/23 06:26:22;;;;;;;5.18;4.00;;;;;;;;;;5035570;28;20028;-65
2021/07/23 06:28:48;;;;;;;4.95;3.80;;;;;;;;;;5044656;28;20021;-65
2021/07/23 06:31:15;;;;;;;4.80;3.80;;;;;;;;;;5027766;28;20391;-65
2021/07/23 06:33:41;;;;;;;4.60;3.60;;;;;;;;;;5035788;28;20029;-65
2021/07/23 06:36:07;;;;;;;6.65;3.92;;;;;;;;;;5024413;28;20711;-65
2021/07/23 06:38:33;;;;;;;6.70;4.10;;;;;;;;;;5026243;28;20444;-64
2021/07/23 06:41:00;;;;;;;5.78;4.00;;;;;;;;;;5026362;28;20408;-65
2021/07/23 06:43:27;;;;;;;5.13;4.10;;;;;;;;;;5027976;28;20475;-66
2021/07/23 06:45:56;;;;;;;5.15;3.63;;;;;;;;;;5030472;28;20383;-66
2021/07/23 06:48:23;;;;;;;4.80;3.85;;;;;;;;;;5025604;28;20028;-66
2021/07/23 06:50:49;;;;;;;5.28;4.00;;;;;;;;;;5030669;28;20082;-66
2021/07/23 06:53:16;;;;;;;4.68;3.72;;;;;;;;;;5030350;28;21187;-66
2021/07/23 06:55:42;;;;;;;5.50;4.00;;;;;;;;;;5026935;28;20113;-65
2021/07/23 06:58:08;;;;;;;4.22;3.40;;;;;;;;;;5033961;28;20029;-65
2021/07/23 07:00:34;;;;;;;4.15;3.10;;;;;;;;;;5037511;28;20040;-66
2021/07/23 07:03:01;;;;;;;4.70;3.30;;;;;;;;;;5026857;28;20029;-66
2021/07/23 07:05:28;;;;;;;4.25;3.50;;;;;;;;;;5032406;28;20033;-66
2021/07/23 07:07:54;;;;;;;3.88;3.30;;;;;;;;;;5037728;28;20431;-66
2021/07/23 07:10:20;;;;;;;3.88;3.30;;;;;;;;;;5028027;28;20026;-66
2021/07/23 07:12:46;;;;;;;5.40;3.40;;;;;;;;;;5032286;28;20050;-66
2021/07/23 07:15:12;;;;;;;4.88;3.42;;;;;;;;;;5029086;28;20534;-65
2021/07/23 07:17:38;;;;;;;3.88;3.30;;;;;;;;;;5030128;28;20041;-66
2021/07/23 07:20:05;;;;;;;4.53;3.60;;;;;;;;;;5030202;28;20556;-66
2021/07/23 07:22:31;;;;;;;4.20;3.47;;;;;;;;;;5040893;28;20061;-67
2021/07/23 07:24:57;;;;;;;4.25;3.67;;;;;;;;;;5030117;28;20504;-67
2021/07/23 07:27:23;;;;;;;4.90;3.65;;;;;;;;;;5043426;28;20108;-67
2021/07/23 07:29:49;;;;;;;4.65;3.33;;;;;;;;;;5039823;28;20048;-67
2021/07/23 07:32:15;;;;;;;4.43;3.40;;;;;;;;;;5032389;28;20159;-67
2021/07/23 07:34:41;;;;;;;3.70;2.97;;;;;;;;;;5042993;28;20487;-67
2021/07/23 07:37:08;;;;;;;4.22;3.22;;;;;;;;;;5050594;28;20046;-65
2021/07/23 07:39:34;;;;;;;4.28;3.45;;;;;;;;;;5049295;28;20613;-66
2021/07/23 07:42:02;;;;;;;3.60;2.90;;;;;;;;;;5038331;28;20403;-66
2021/07/23 07:44:28;;;;;;;4.25;2.92;;;;;;;;;;5049112;28;20415;-66
2021/07/23 07:46:54;;;;;;;3.55;3.10;;;;;;;;;;5031572;28;20041;-66
2021/07/23 07:49:20;;;;;;;2.97;2.65;;;;;;;;;;5029571;28;21664;-66
2021/07/23 07:51:49;;;;;;;4.03;2.97;;;;;;;;;;5035190;28;20072;-66
2021/07/23 07:54:15;;;;;;;6.03;2.85;;;;;;;;;;5036054;28;20029;-66
2021/07/23 07:56:43;;;;;;;4.05;2.88;;;;;;;;;;5033445;28;20029;-67
2021/07/23 07:59:10;;;;;;;3.28;2.85;;;;;;;;;;5038323;28;20036;-66
2021/07/23 08:01:36;;;;;;;4.10;3.20;;;;;;;;;;5027664;28;20025;-66
2021/07/23 08:04:03;;;;;;;5.20;3.83;;;;;;;;;;5027055;28;20026;-66
2021/07/23 08:06:38;;;;;;;4.55;3.40;;;;;;;;;;5026975;28;20021;-67
2021/07/23 08:09:08;;;;;;;4.28;3.28;;;;;;;;;;5026851;28;20028;-67
2021/07/23 08:11:35;;;;;;;4.78;3.40;;;;;;;;;;5027387;28;20024;-67
2021/07/23 08:14:02;;;;;;;4.20;3.22;;;;;;;;;;5028374;28;20025;-67
2021/07/23 08:16:30;;;;;;;3.97;3.08;;;;;;;;;;5025234;28;20523;-66
2021/07/23 08:18:57;;;;;;;3.60;2.92;;;;;;;;;;5030164;28;20451;-67
2021/07/23 08:21:23;;;;;;;3.78;2.92;;;;;;;;;;5040024;28;20411;-66
2021/07/23 08:23:49;;;;;;;2.78;2.30;;;;;;;;;;5043237;28;20036;-66
2021/07/23 08:26:15;;;;;;;3.13;2.80;;;;;;;;;;5037133;28;20036;-63
2021/07/23 08:28:41;;;;;;;3.65;3.20;;;;;;;;;;5030681;28;20070;-64
2021/07/23 08:31:07;;;;;;;3.72;3.00;;;;;;;;;;5036556;28;20079;-63
2021/07/23 08:33:34;;;;;;;3.28;2.53;;;;;;;;;;5043688;28;20108;-64
2021/07/23 08:36:01;;;;;;;3.60;2.50;;;;;;;;;;5028288;28;20439;-67
2021/07/23 08:38:27;;;;;;;3.72;2.72;;;;;;;;;;5033765;28;20040;-67
2021/07/23 08:40:53;;;;;;;3.35;2.80;;;;;;;;;;5037530;28;20379;-65
2021/07/23 08:43:19;;;;;;;3.38;2.85;;;;;;;;;;5031030;28;20460;-66
2021/07/23 08:45:45;;;;;;;3.25;2.75;;;;;;;;;;5027862;28;20053;-66
2021/07/23 08:48:11;;;;;;;3.67;3.03;;;;;;;;;;5031832;28;20029;-66
2021/07/23 08:50:37;;;;;;;3.28;2.58;;;;;;;;;;5035925;28;20108;-66
2021/07/23 08:53:09;;;;;;;3.92;3.10;;;;;;;;;;5045867;28;20519;-65
2021/07/23 08:55:36;;;;;;;4.75;3.63;;;;;;;;;;5028873;28;20033;-67
2021/07/23 08:58:02;;;;;;;4.32;3.38;;;;;;;;;;5031504;28;20369;-67
2021/07/23 09:00:28;;;;;;;3.80;3.03;;;;;;;;;;5047210;28;20490;-67
2021/07/23 09:03:04;;;;;;;2.95;2.50;;;;;;;;;;5039140;28;20030;-67
2021/07/23 09:05:34;;;;;;;3.75;3.00;;;;;;;;;;5031847;28;20036;-64
2021/07/23 09:08:14;;;;;;;3.22;2.65;;;;;;;;;;5026788;28;20231;-64
2021/07/23 09:10:40;;;;;;;2.65;2.30;;;;;;;;;;5026893;28;20017;-63
2021/07/23 09:13:07;;;;;;;2.53;2.30;;;;;;;;;;5026541;28;20041;-63
2021/07/23 09:15:37;;;;;;;2.95;2.50;;;;;;;;;;5034490;28;20047;-68
2021/07/23 09:18:05;;;;;;;3.00;2.58;;;;;;;;;;5033025;28;20323;-68
2021/07/23 09:20:31;;;;;;;3.42;2.20;;;;;;;;;;5035637;28;20021;-64
2021/07/23 09:23:01;;;;;;;3.10;2.28;;;;;;;;;;5039668;28;20057;-65
2021/07/23 09:25:38;;;;;;;3.53;2.75;;;;;;;;;;5026985;28;20041;-65
2021/07/23 09:28:25;;;;;;;3.03;2.72;;;;;;;;;;5038158;28;20045;-65
2021/07/23 09:30:52;;;;;;;2.42;2.22;;;;;;;;;;5026955;28;20100;-65
2021/07/23 09:33:28;;;;;;;2.90;2.22;;;;;;;;;;5041729;28;20029;-65
2021/07/23 09:35:58;;;;;;;2.88;2.42;;;;;;;;;;5047139;28;20067;-65
2021/07/23 09:38:26;;;;;;;2.42;2.22;;;;;;;;;;5046764;28;20041;-65
2021/07/23 09:40:52;;;;;;;2.72;2.33;;;;;;;;;;5039825;28;20030;-65
2021/07/23 09:43:29;;;;;;;2.50;2.30;;;;;;;;;;5028683;28;20030;-65
2021/07/23 09:45:55;;;;;;;2.97;2.47;;;;;;;;;;5034905;28;20128;-66
2021/07/23 09:48:21;;;;;;;3.22;2.78;;;;;;;;;;5047945;28;20039;-65
2021/07/23 09:50:47;;;;;;;3.47;2.58;;;;;;;;;;5054452;28;20031;-64
2021/07/23 09:53:20;;;;;;;3.58;2.63;;;;;;;;;;5030628;28;20396;-64
2021/07/23 09:55:49;;;;;;;3.35;2.83;;;;;;;;;;5026545;28;20021;-65
2021/07/23 09:58:19;;;;;;;3.42;2.80;;;;;;;;;;5026336;28;20037;-64
2021/07/23 10:00:49;;;;;;;3.00;2.63;;;;;;;;;;5027577;28;20122;-66
2021/07/23 10:03:16;;;;;;;4.15;2.97;;;;;;;;;;5033116;28;20515;-64
2021/07/23 10:05:55;;;;;;;3.42;2.83;;;;;;;;;;5025690;28;20408;-64
2021/07/23 10:08:30;;;;;;;2.33;2.13;;;;;;;;;;5044218;28;20491;-64
2021/07/23 10:10:56;;;;;;;2.53;2.33;;;;;;;;;;5045353;28;20029;-64
2021/07/23 10:13:27;;;;;;;2.83;2.53;;;;;;;;;;5037543;28;20492;-65
2021/07/23 10:15:53;;;;;;;2.83;2.22;;;;;;;;;;5023939;28;20402;-65
2021/07/23 10:18:19;;;;;;;2.60;2.40;;;;;;;;;;5023754;28;20029;-65
2021/07/23 10:20:46;;;;;;;3.72;2.90;;;;;;;;;;5024349;28;20044;-66
2021/07/23 10:23:17;;;;;;;3.53;2.55;;;;;;;;;;5024729;28;20464;-66
2021/07/23 10:25:43;;;;;;;2.70;2.42;;;;;;;;;;5028190;28;20065;-65
2021/07/23 10:28:10;;;;;;;3.30;2.47;;;;;;;;;;5029220;28;20025;-64
2021/07/23 10:30:38;;;;;;;3.25;2.90;;;;;;;;;;5023558;28;20604;-65
2021/07/23 10:33:05;;;;;;;3.13;2.70;;;;;;;;;;5028650;28;20564;-65
2021/07/23 10:35:32;;;;;;;3.20;2.50;;;;;;;;;;5025545;28;20507;-66
2021/07/23 10:37:59;;;;;;;3.42;2.72;;;;;;;;;;5031382;28;20071;-65
2021/07/23 10:40:32;;;;;;;2.38;2.17;;;;;;;;;;5025875;28;20032;-65
2021/07/23 10:42:58;;;;;;;2.97;2.67;;;;;;;;;;5037151;28;20685;-64
2021/07/23 10:45:39;;;;;;;3.15;2.65;;;;;;;;;;5043466;28;20433;-65
2021/07/23 10:48:05;;;;;;;3.35;2.90;;;;;;;;;;5030041;28;20120;-66
2021/07/23 10:50:40;;;;;;;3.22;2.75;;;;;;;;;;5034517;28;20036;-63
2021/07/23 10:53:25;;;;;;;3.00;2.70;;;;;;;;;;5031184;28;20742;-64
2021/07/23 10:55:52;;;;;;;3.83;3.20;;;;;;;;;;5039368;28;20101;-64
2021/07/23 10:58:21;;;;;;;3.17;2.80;;;;;;;;;;5036967;28;20048;-65
2021/07/23 11:00:51;;;;;;;2.88;2.47;;;;;;;;;;5033546;28;20060;-63
2021/07/23 11:03:35;;;;;;;2.80;2.40;;;;;;;;;;5039092;28;20029;-64
2021/07/23 11:06:02;;;;;;;2.60;2.20;;;;;;;;;;5048128;28;20091;-63
2021/07/23 11:08:28;;;;;;;2.80;2.40;;;;;;;;;;5030124;28;20065;-66
2021/07/23 11:10:55;;;;;;;2.67;2.25;;;;;;;;;;5028060;28;20029;-62
2021/07/23 11:13:23;;;;;;;2.22;2.00;;;;;;;;;;5027015;28;20254;-65
2021/07/23 11:15:49;;;;;;;2.90;2.30;;;;;;;;;;5034211;28;20040;-66
2021/07/23 11:18:15;;;;;;;2.10;1.90;;;;;;;;;;5039974;28;20554;-66
2021/07/23 11:20:42;;;;;;;3.13;2.35;;;;;;;;;;5047889;28;20047;-66
2021/07/23 11:23:10;;;;;;;2.25;1.98;;;;;;;;;;5032704;28;20033;-65
2021/07/23 11:25:37;;;;;;;2.50;2.05;;;;;;;;;;5037325;28;20036;-65
2021/07/23 11:28:07;;;;;;;2.45;2.25;;;;;;;;;;5046559;28;20086;-67
2021/07/23 11:30:34;;;;;;;3.38;2.30;;;;;;;;;;5047547;28;20120;-65
2021/07/23 11:33:02;;;;;;;2.53;2.28;;;;;;;;;;5043139;28;20047;-65
2021/07/23 11:35:29;;;;;;;2.55;2.30;;;;;;;;;;5047254;28;20412;-65
2021/07/23 11:37:56;;;;;;;3.00;2.70;;;;;;;;;;5031087;28;20072;-62
2021/07/23 11:40:23;;;;;;;3.22;2.92;;;;;;;;;;5027276;28;20025;-66
2021/07/23 11:42:54;;;;;;;3.55;2.47;;;;;;;;;;5035626;28;20041;-66
2021/07/23 11:45:22;;;;;;;2.60;2.10;;;;;;;;;;5037553;28;20496;-66
2021/07/23 11:47:49;;;;;;;3.85;3.20;;;;;;;;;;5037101;28;20037;-66
2021/07/23 11:50:22;;;;;;;4.45;4.05;;;;;;;;;;5032669;28;20450;-66
2021/07/23 11:52:51;;;;;;;4.47;3.83;;;;;;;;;;5029949;28;20025;-67
2021/07/23 11:55:18;;;;;;;4.13;3.60;;;;;;;;;;5029680;28;20400;-63
2021/07/23 11:57:45;;;;;;;4.00;3.53;;;;;;;;;;5034517;28;20021;-63
2021/07/23 12:00:23;;;;;;;4.03;3.55;;;;;;;;;;5037883;28;20534;-63
2021/07/23 12:02:50;;;;;;;3.97;3.58;;;;;;;;;;5040743;28;20040;-65
2021/07/23 12:05:17;;;;;;;3.47;3.10;;;;;;;;;;5042827;28;20025;-64
2021/07/23 12:07:46;;;;;;;4.50;3.85;;;;;;;;;;5047219;28;20035;-64
2021/07/23 12:10:16;;;;;;;3.13;2.83;;;;;;;;;;5040839;28;20100;-63
2021/07/23 12:12:43;;;;;;;3.90;3.50;;;;;;;;;;5027903;28;20029;-63
2021/07/23 12:15:10;;;;;;;3.60;3.30;;;;;;;;;;5035841;28;20033;-63
2021/07/23 12:17:37;;;;;;;4.72;3.70;;;;;;;;;;5033884;28;20041;-63
2021/07/23 12:20:04;;;;;;;4.95;4.43;;;;;;;;;;5038495;28;20578;-64
2021/07/23 12:22:30;;;;;;;5.72;4.50;;;;;;;;;;5036147;28;20037;-64
2021/07/23 12:24:56;;;;;;;6.45;4.85;;;;;;;;;;5027579;28;20639;-63
2021/07/23 12:27:23;;;;;;;6.05;5.00;;;;;;;;;;5041254;28;20029;-66
2021/07/23 12:29:50;;;;;;;7.93;5.53;;;;;;;;;;5036647;28;20127;-66
2021/07/23 12:32:22;;;;;;;6.47;5.38;;;;;;;;;;5033153;28;20662;-66
2021/07/23 12:34:55;;;;;;;5.53;4.47;;;;;;;;;;5041841;28;20033;-66
2021/07/23 12:37:20;;;;;;;4.20;3.80;;;;;;;;;;5039996;28;20056;-64
2021/07/23 12:39:53;;;;;;;4.85;4.07;;;;;;;;;;5032448;28;20061;-65
2021/07/23 12:42:20;;;;;;;4.10;3.70;;;;;;;;;;5032132;28;20029;-65
2021/07/23 12:44:48;;;;;;;4.80;4.30;;;;;;;;;;5039215;28;20060;-64
2021/07/23 12:47:24;;;;;;;5.72;5.10;;;;;;;;;;5043364;28;20024;-66
2021/07/23 12:49:51;;;;;;;5.43;4.85;;;;;;;;;;5043439;28;20029;-66
2021/07/23 12:52:18;;;;;;;5.45;4.53;;;;;;;;;;5043901;28;20478;-66
2021/07/23 12:54:45;;;;;;;5.88;4.72;;;;;;;;;;5042899;28;20025;-66
2021/07/23 12:57:18;;;;;;;5.75;4.93;;;;;;;;;;5041191;28;20037;-65
2021/07/23 12:59:48;;;;;;;5.35;4.13;;;;;;;;;;5043901;28;20029;-65
2021/07/23 13:02:15;;;;;;;6.95;4.60;;;;;;;;;;5024856;28;20088;-65
2021/07/23 13:04:41;;;;;;;4.13;3.72;;;;;;;;;;5025765;28;20478;-65
2021/07/23 13:07:07;;;;;;;4.60;4.10;;;;;;;;;;5033965;28;20091;-65
2021/07/23 13:09:34;;;;;;;4.22;3.83;;;;;;;;;;5037214;28;20060;-65
2021/07/23 13:12:01;;;;;;;4.18;3.78;;;;;;;;;;5031477;28;20053;-65
2021/07/23 13:14:29;;;;;;;4.25;3.67;;;;;;;;;;5029625;28;20033;-66
2021/07/23 13:16:55;;;;;;;5.07;4.25;;;;;;;;;;5037495;28;20029;-66
2021/07/23 13:19:21;;;;;;;4.20;3.80;;;;;;;;;;5035845;28;20165;-65
2021/07/23 13:21:48;;;;;;;4.32;3.80;;;;;;;;;;5037500;28;20032;-64
2021/07/23 13:24:15;;;;;;;3.85;3.45;;;;;;;;;;5036845;28;20017;-64
2021/07/23 13:26:41;;;;;;;4.10;3.67;;;;;;;;;;5034712;28;20029;-64
2021/07/23 13:29:08;;;;;;;3.20;2.90;;;;;;;;;;5037547;28;20029;-65
2021/07/23 13:31:34;;;;;;;3.63;3.33;;;;;;;;;;5029561;28;20017;-66
2021/07/23 13:34:00;;;;;;;3.70;3.40;;;;;;;;;;5034435;28;20064;-66
2021/07/23 13:36:28;;;;;;;3.80;3.47;;;;;;;;;;5030978;28;20061;-65
2021/07/23 13:39:01;;;;;;;4.38;3.83;;;;;;;;;;5027030;28;20112;-66
2021/07/23 13:41:28;;;;;;;4.30;3.90;;;;;;;;;;5028209;28;20025;-65
2021/07/23 13:43:54;;;;;;;5.13;4.63;;;;;;;;;;5046794;28;20483;-65
2021/07/23 13:46:22;;;;;;;4.20;3.80;;;;;;;;;;5044320;28;20013;-65
2021/07/23 13:48:48;;;;;;;5.50;4.60;;;;;;;;;;5040716;28;20036;-65
2021/07/23 13:51:14;;;;;;;5.05;4.20;;;;;;;;;;5038033;28;20014;-65
2021/07/23 13:53:42;;;;;;;4.75;4.22;;;;;;;;;;5032541;28;20496;-65
2021/07/23 13:56:08;;;;;;;4.00;3.60;;;;;;;;;;5028585;28;20013;-64
2021/07/23 13:58:34;;;;;;;5.18;4.53;;;;;;;;;;5038969;28;20067;-64
2021/07/23 14:01:01;;;;;;;4.75;4.28;;;;;;;;;;5027472;28;20018;-65
2021/07/23 14:03:27;;;;;;;4.97;3.85;;;;;;;;;;5031363;28;20104;-65
2021/07/23 14:05:53;;;;;;;6.20;5.10;;;;;;;;;;5029180;28;20136;-65
2021/07/23 14:08:19;;;;;;;6.53;5.40;;;;;;;;;;5033946;28;20038;-65
2021/07/23 14:10:45;;;;;;;6.00;4.05;;;;;;;;;;5033606;28;20024;-65
2021/07/23 14:13:11;;;;;;;7.55;5.45;;;;;;;;;;5031173;28;20570;-65
2021/07/23 14:15:40;;;;;;;5.03;4.55;;;;;;;;;;5031864;28;20087;-66
2021/07/23 14:18:07;;;;;;;6.30;5.47;;;;;;;;;;5034405;28;20032;-65
2021/07/23 14:20:33;;;;;;;5.80;5.22;;;;;;;;;;5024284;28;20025;-67
2021/07/23 14:22:59;;;;;;;6.53;5.45;;;;;;;;;;5024705;28;20238;-67
2021/07/23 14:25:26;;;;;;;5.38;4.88;;;;;;;;;;5028528;28;20029;-68
2021/07/23 14:27:52;;;;;;;5.72;4.75;;;;;;;;;;5036612;28;20622;-65
2021/07/23 14:30:19;;;;;;;5.18;4.63;;;;;;;;;;5036213;28;20116;-65
2021/07/23 14:32:46;;;;;;;4.05;3.65;;;;;;;;;;5031940;28;20030;-64
2021/07/23 14:35:12;;;;;;;4.32;3.92;;;;;;;;;;5042467;28;20025;-64
2021/07/23 14:37:38;;;;;;;4.72;4.22;;;;;;;;;;5041750;28;20029;-66
2021/07/23 14:40:05;;;;;;;4.68;4.28;;;;;;;;;;5037109;28;20456;-64
2021/07/23 14:42:31;;;;;;;4.50;4.10;;;;;;;;;;5032436;28;20068;-61